Time;durP1;ratioP1;P1;durP2;ratioP2;P2;SDS_P1;SDS_P2;PMS_P1;PMS_P2;Temp;Humidity;BMP_temperature;BMP_pressure;BME280_temperature;BME280_humidity;BME280_pressure;Samples;Min_cycle;Max_cycle;Signal;HPM_P1;HPM_P2
2022/10/03 00:02:26;;;;;;;5.13;1.75;;;;;;;19.34;50.85;102502.50;5063870;28;20490;-67
2022/10/03 00:05:26;;;;;;;5.15;1.60;;;;;;;19.28;50.73;102496.72;5063899;28;20020;-66
2022/10/03 00:08:06;;;;;;;4.38;1.60;;;;;;;19.33;50.83;102507.88;5063649;28;20123;-66
2022/10/03 00:11:05;;;;;;;4.50;1.58;;;;;;;19.30;50.65;102495.69;5063803;28;20040;-65
2022/10/03 00:13:54;;;;;;;4.88;1.52;;;;;;;19.32;50.83;102500.88;5063845;28;20117;-66
2022/10/03 00:16:41;;;;;;;5.68;1.77;;;;;;;19.28;50.73;102491.44;5063632;28;20060;-68
2022/10/03 00:19:37;;;;;;;4.95;1.75;;;;;;;19.29;50.54;102495.78;5063270;28;20407;-65
2022/10/03 00:22:02;;;;;;;5.80;1.63;;;;;;;19.28;50.76;102497.59;5063731;28;20456;-65
2022/10/03 00:24:55;;;;;;;5.73;1.73;;;;;;;19.27;50.42;102506.44;5062864;28;20048;-66
2022/10/03 00:27:45;;;;;;;5.82;1.95;;;;;;;19.23;50.42;102504.91;5063747;28;20113;-66
2022/10/03 00:30:20;;;;;;;4.32;1.70;;;;;;;19.25;50.56;102508.34;5063379;28;20031;-67
2022/10/03 00:33:02;;;;;;;3.33;1.38;;;;;;;19.24;50.57;102516.38;5063140;28;20127;-68
2022/10/03 00:36:02;;;;;;;5.35;1.60;;;;;;;19.17;50.53;102511.44;5061978;28;20372;-66
2022/10/03 00:39:02;;;;;;;4.55;1.60;;;;;;;19.22;50.52;102519.09;5063343;28;20043;-69
2022/10/03 00:42:05;;;;;;;5.00;1.50;;;;;;;19.22;50.47;102521.75;5062880;28;20186;-66
2022/10/03 00:44:42;;;;;;;4.35;1.67;;;;;;;19.20;50.44;102524.47;5063073;28;20033;-64
2022/10/03 00:48:02;;;;;;;5.03;1.73;;;;;;;19.20;50.50;102527.13;5062960;28;20063;-66
2022/10/03 00:50:49;;;;;;;4.93;1.63;;;;;;;19.11;50.52;102513.59;5039935;28;20028;-66
2022/10/03 00:53:27;;;;;;;5.43;1.88;;;;;;;19.11;50.29;102518.88;5061197;28;20047;-66
2022/10/03 00:56:17;;;;;;;4.97;1.77;;;;;;;19.10;50.23;102528.59;5062653;28;20033;-66
2022/10/03 00:59:04;;;;;;;5.13;1.67;;;;;;;19.16;50.29;102527.38;5062995;28;20028;-66
2022/10/03 01:01:30;;;;;;;4.30;1.50;;;;;;;19.15;50.23;102531.81;5062718;28;20024;-64
2022/10/03 01:04:04;;;;;;;3.87;1.60;;;;;;;19.15;50.24;102536.25;5062296;28;20066;-67
2022/10/03 01:06:38;;;;;;;4.20;1.33;;;;;;;19.14;50.02;102531.91;5062563;28;20448;-65
2022/10/03 01:09:28;;;;;;;4.53;1.73;;;;;;;19.14;50.07;102542.50;5062110;28;20060;-66
2022/10/03 01:12:17;;;;;;;3.67;1.52;;;;;;;19.11;50.21;102554.06;5062604;28;20151;-66
2022/10/03 01:15:09;;;;;;;4.68;1.50;;;;;;;19.12;50.17;102554.91;5062418;28;20067;-66
2022/10/03 01:17:53;;;;;;;4.50;1.65;;;;;;;19.10;49.95;102547.09;5062309;28;20033;-66
2022/10/03 01:20:34;;;;;;;4.70;1.70;;;;;;;19.11;50.16;102561.16;5062289;28;20106;-67
2022/10/03 01:23:21;;;;;;;4.55;1.50;;;;;;;19.10;49.83;102562.09;5061839;28;20041;-67
2022/10/03 01:26:17;;;;;;;6.20;1.75;;;;;;;19.09;49.90;102563.03;5062292;28;20048;-67
2022/10/03 01:31:58;;;;;;;4.90;1.50;;;;;;;19.08;49.77;102562.19;5062016;28;20511;-67
2022/10/03 01:34:47;;;;;;;4.60;1.40;;;;;;;19.06;49.85;102564.06;5061725;28;20177;-70
2022/10/03 01:37:44;;;;;;;4.05;1.38;;;;;;;19.05;49.82;102561.53;5061733;28;20033;-64
2022/10/03 01:40:26;;;;;;;5.18;1.60;;;;;;;19.05;49.69;102559.72;5060981;28;20048;-66
2022/10/03 01:43:04;;;;;;;5.22;1.35;;;;;;;19.02;49.73;102558.09;5061779;28;20033;-67
2022/10/03 01:45:54;;;;;;;4.03;1.35;;;;;;;18.96;49.79;102550.56;5061675;28;20915;-68
2022/10/03 01:49:00;;;;;;;5.55;1.70;;;;;;;19.03;49.66;102572.19;5061953;28;20043;-69
2022/10/03 01:51:33;;;;;;;4.47;1.70;;;;;;;18.90;49.89;102556.19;5055497;28;20595;-68
2022/10/03 01:54:19;;;;;;;3.63;1.20;;;;;;;18.81;49.62;102533.75;5061126;28;20035;-69
2022/10/03 01:57:07;;;;;;;4.88;1.52;;;;;;;18.98;49.50;102558.41;5061482;28;20036;-67
2022/10/03 01:59:54;;;;;;;3.08;1.40;;;;;;;18.93;49.70;102557.78;5061470;28;20068;-68
2022/10/03 02:02:22;;;;;;;4.80;1.50;;;;;;;18.97;49.79;102570.72;5061145;28;20464;-67
2022/10/03 02:05:01;;;;;;;3.92;1.50;;;;;;;18.96;49.42;102563.75;5061605;28;20032;-65
2022/10/03 02:07:59;;;;;;;4.18;1.40;;;;;;;18.95;49.59;102567.34;5061536;28;20032;-67
2022/10/03 02:10:44;;;;;;;3.38;1.30;;;;;;;18.91;49.65;102559.66;5061526;28;20031;-67
2022/10/03 02:13:19;;;;;;;4.32;1.38;;;;;;;18.87;49.66;102559.00;5061457;28;20030;-69
2022/10/03 02:16:15;;;;;;;4.40;1.30;;;;;;;18.92;49.57;102571.94;5060722;28;20033;-65
2022/10/03 02:19:06;;;;;;;4.75;1.40;;;;;;;18.95;49.51;102579.69;5061362;28;20460;-64
2022/10/03 02:21:44;;;;;;;3.20;1.38;;;;;;;18.87;49.49;102560.78;5055761;28;20086;-66
2022/10/03 02:24:16;;;;;;;3.78;1.38;;;;;;;18.95;49.32;102575.25;5061184;28;20131;-64
2022/10/03 02:27:14;;;;;;;3.78;1.40;;;;;;;18.93;49.61;102577.16;5059923;28;20043;-65
2022/10/03 02:30:14;;;;;;;4.43;1.50;;;;;;;18.91;49.40;102573.72;5061236;28;20098;-67
2022/10/03 02:32:58;;;;;;;4.75;1.48;;;;;;;18.91;49.42;102568.44;5038189;28;20386;-65
2022/10/03 02:35:55;;;;;;;3.75;1.33;;;;;;;18.87;49.21;102561.66;5059061;28;20102;-65
2022/10/03 02:38:47;;;;;;;3.58;1.20;;;;;;;18.82;49.38;102561.88;5061023;28;20372;-66
2022/10/03 02:41:17;;;;;;;4.85;1.88;;;;;;;18.80;49.12;102561.13;5061291;28;20031;-67
2022/10/03 02:44:05;;;;;;;4.75;1.65;;;;;;;18.90;49.34;102584.38;5061176;28;20032;-65
2022/10/03 02:47:00;;;;;;;5.20;1.48;;;;;;;18.85;49.31;102569.66;5061016;28;20029;-66
2022/10/03 02:49:56;;;;;;;4.32;1.52;;;;;;;18.87;49.33;102568.69;5060781;28;20073;-66
2022/10/03 02:52:46;;;;;;;3.80;1.52;;;;;;;18.88;49.27;102567.78;5060838;28;20111;-66
2022/10/03 02:55:38;;;;;;;3.80;1.50;;;;;;;18.85;49.29;102564.38;5061033;28;20085;-65
2022/10/03 02:58:19;;;;;;;4.05;1.40;;;;;;;18.85;49.09;102569.66;5060738;28;20051;-66
2022/10/03 03:01:11;;;;;;;5.05;1.42;;;;;;;18.84;49.06;102567.94;5060816;28;20055;-66
2022/10/03 03:03:53;;;;;;;4.07;1.80;;;;;;;18.79;49.13;102559.41;5060754;28;20062;-65
2022/10/03 03:06:29;;;;;;;4.75;1.40;;;;;;;18.79;49.14;102567.34;5060892;28;20032;-65
2022/10/03 03:09:13;;;;;;;5.32;1.42;;;;;;;18.82;49.12;102561.88;5060704;28;20040;-66
2022/10/03 03:12:12;;;;;;;5.93;1.60;;;;;;;18.82;49.04;102567.16;5060653;28;20033;-66
2022/10/03 03:15:15;;;;;;;4.18;1.30;;;;;;;18.81;48.88;102562.81;5060621;28;20487;-66
2022/10/03 03:17:43;;;;;;;4.07;1.42;;;;;;;18.82;48.94;102571.59;5060260;28;20456;-67
2022/10/03 03:20:09;;;;;;;4.72;1.38;;;;;;;18.78;48.81;102573.53;5060813;28;20187;-66
2022/10/03 03:23:03;;;;;;;3.42;1.30;;;;;;;18.74;48.97;102566.75;5060922;28;20361;-66
2022/10/03 03:25:35;;;;;;;2.88;1.20;;;;;;;18.74;48.72;102571.16;5061307;28;20380;-67
2022/10/03 03:28:18;;;;;;;5.63;1.77;;;;;;;18.72;48.81;102568.59;5064520;28;20047;-65
2022/10/03 03:31:10;;;;;;;3.92;1.55;;;;;;;18.78;48.67;102577.97;5064427;28;20064;-67
2022/10/03 03:33:50;;;;;;;4.78;1.40;;;;;;;18.70;48.72;102564.38;5064555;28;20031;-66
2022/10/03 03:36:40;;;;;;;3.45;1.40;;;;;;;18.71;48.71;102569.56;5064144;28;20029;-67
2022/10/03 03:39:43;;;;;;;2.35;1.20;;;;;;;18.71;48.67;102572.19;5064137;28;20032;-67
2022/10/03 03:42:30;;;;;;;4.20;1.30;;;;;;;18.76;48.71;102585.16;5064178;28;20028;-65
2022/10/03 03:45:09;;;;;;;5.63;1.55;;;;;;;18.68;48.72;102573.22;5064232;28;20059;-66
2022/10/03 03:48:10;;;;;;;5.07;1.77;;;;;;;18.68;48.46;102573.22;5064097;28;20043;-65
2022/10/03 03:50:44;;;;;;;5.55;1.63;;;;;;;18.74;48.53;102589.66;5063922;28;20555;-65
2022/10/03 03:53:52;;;;;;;3.63;1.50;;;;;;;18.74;48.62;102585.22;5064088;28;20040;-66
2022/10/03 03:56:48;;;;;;;5.15;1.45;;;;;;;18.72;48.70;102584.44;5058968;28;20051;-67
2022/10/03 03:59:25;;;;;;;4.00;1.40;;;;;;;18.66;48.62;102575.09;5070478;28;20034;-66
2022/10/03 04:02:16;;;;;;;4.40;1.55;;;;;;;18.71;48.58;102588.03;5063790;28;20131;-66
2022/10/03 04:04:54;;;;;;;4.07;1.50;;;;;;;18.68;48.47;102593.50;5063284;28;20040;-68
2022/10/03 04:07:47;;;;;;;6.80;1.52;;;;;;;18.69;48.39;102589.91;5063741;28;20510;-65
2022/10/03 04:10:45;;;;;;;3.95;1.50;;;;;;;18.67;48.64;102587.38;5063525;28;20372;-66
2022/10/03 04:13:35;;;;;;;5.53;1.80;;;;;;;18.68;48.47;102593.50;5055504;28;20076;-66
2022/10/03 04:19:47;;;;;;;4.40;1.58;;;;;;;18.66;48.47;102600.66;5063629;28;20059;-66
2022/10/03 04:22:40;;;;;;;4.07;1.33;;;;;;;18.66;48.46;102603.31;5063329;28;20036;-65
2022/10/03 04:25:21;;;;;;;3.70;1.30;;;;;;;18.64;48.56;102590.19;5063428;28;20053;-66
2022/10/03 04:28:06;;;;;;;4.18;1.60;;;;;;;18.62;48.15;102589.41;5063309;28;20116;-67
2022/10/03 04:30:50;;;;;;;3.58;1.63;;;;;;;18.65;48.53;102598.94;5063471;28;20032;-65
2022/10/03 04:33:26;;;;;;;3.92;1.52;;;;;;;18.57;48.57;102580.88;5063211;28;20063;-68
2022/10/03 04:36:32;;;;;;;4.35;1.73;;;;;;;18.60;48.06;102593.91;5063416;28;20032;-67
2022/10/03 04:39:09;;;;;;;5.72;1.52;;;;;;;18.63;48.35;102599.03;5062870;28;20361;-68
2022/10/03 04:41:49;;;;;;;3.13;1.38;;;;;;;18.63;48.37;102598.19;5063503;28;20032;-68
2022/10/03 04:44:56;;;;;;;3.75;1.60;;;;;;;18.63;48.16;102595.56;5063472;28;20056;-67
2022/10/03 04:47:33;;;;;;;6.13;1.55;;;;;;;18.57;48.34;102586.16;5063222;28;20040;-68
2022/10/03 04:50:10;;;;;;;3.10;1.20;;;;;;;18.60;48.22;102593.91;5063021;28;20036;-66
2022/10/03 04:52:47;;;;;;;3.70;1.50;;;;;;;18.57;48.09;102593.25;5063075;28;20099;-67
2022/10/03 04:55:12;;;;;;;3.13;1.30;;;;;;;18.62;48.08;102597.31;5062859;28;20033;-69
2022/10/03 04:57:58;;;;;;;3.67;1.40;;;;;;;18.61;48.34;102587.72;5062672;28;20031;-67
2022/10/03 05:00:47;;;;;;;3.33;1.30;;;;;;;18.61;48.35;102592.13;5062605;28;20066;-68
2022/10/03 05:03:21;;;;;;;4.25;1.40;;;;;;;18.59;48.03;102586.09;5062786;28;20396;-66
2022/10/03 05:05:58;;;;;;;;;;;;;;;18.59;48.30;102600.13;5063423;28;20044;-65
2022/10/03 05:08:46;;;;;;;3.40;1.20;;;;;;;18.49;48.02;102586.59;5062419;28;19916;-66
2022/10/03 05:11:38;;;;;;;4.60;1.60;;;;;;;18.56;48.03;102595.03;5062536;28;20484;-66
2022/10/03 05:14:15;;;;;;;4.43;1.50;;;;;;;18.58;48.29;102601.09;5040400;28;20036;-67
2022/10/03 05:17:05;;;;;;;4.85;1.60;;;;;;;18.60;48.24;102612.41;5062451;28;20495;-66
2022/10/03 05:19:46;;;;;;;3.58;1.42;;;;;;;18.59;47.92;102615.97;5062497;28;20376;-65
2022/10/03 05:22:30;;;;;;;4.80;1.50;;;;;;;18.58;48.35;102619.56;5062813;28;20043;-67
2022/10/03 05:25:21;;;;;;;4.15;1.40;;;;;;;18.57;47.97;102623.13;5062068;28;20093;-65
2022/10/03 05:28:00;;;;;;;3.58;1.30;;;;;;;18.56;47.97;102612.66;5062013;28;20036;-64
2022/10/03 05:30:34;;;;;;;3.78;1.45;;;;;;;18.53;47.99;102611.03;5062117;28;20031;-67
2022/10/03 05:33:06;;;;;;;3.03;1.40;;;;;;;18.54;48.10;102617.19;5062401;28;20029;-67
2022/10/03 05:36:00;;;;;;;3.45;1.55;;;;;;;18.58;47.93;102622.22;5062149;28;20392;-67
2022/10/03 05:38:37;;;;;;;3.40;1.50;;;;;;;18.57;48.22;102619.66;5061556;28;20032;-66
2022/10/03 05:41:15;;;;;;;4.30;1.52;;;;;;;18.62;48.28;102633.44;5062126;28;20051;-67
2022/10/03 05:43:48;;;;;;;3.85;1.55;;;;;;;18.64;48.15;102628.91;5061810;28;20040;-66
2022/10/03 05:46:29;;;;;;;2.92;1.38;;;;;;;18.61;48.36;102623.81;5061960;28;20039;-68
2022/10/03 05:49:18;;;;;;;3.40;1.50;;;;;;;18.72;48.42;102639.06;5061473;28;20094;-66
2022/10/03 05:52:06;;;;;;;3.90;1.40;;;;;;;18.69;48.39;102626.88;5062067;28;20029;-66
2022/10/03 05:54:52;;;;;;;2.72;1.33;;;;;;;18.74;48.27;102624.84;5060463;28;20093;-67
2022/10/03 05:57:51;;;;;;;4.80;1.85;;;;;;;18.81;48.58;102628.84;5061625;28;20024;-65
2022/10/03 06:00:59;;;;;;;4.93;2.03;;;;;;;18.81;47.89;102635.91;5061823;28;20502;-66
2022/10/03 06:03:36;;;;;;;3.47;1.60;;;;;;;18.89;48.14;102638.16;5059886;28;20029;-67
2022/10/03 06:06:26;;;;;;;4.25;1.50;;;;;;;18.93;48.00;102644.97;5061361;28;20802;-68
2022/10/03 06:09:37;;;;;;;5.07;1.50;;;;;;;18.89;48.32;102640.81;5061531;28;20077;-68
2022/10/03 06:12:09;;;;;;;4.63;1.60;;;;;;;18.93;48.55;102640.56;5061097;28;20036;-67
2022/10/03 06:14:58;;;;;;;4.10;1.45;;;;;;;19.01;47.96;102651.53;5061796;28;20111;-67
2022/10/03 06:17:38;;;;;;;4.30;1.67;;;;;;;19.04;48.35;102653.13;5061074;28;20036;-67
2022/10/03 06:20:15;;;;;;;7.03;2.38;;;;;;;18.93;47.44;102643.19;5061381;28;20037;-67
2022/10/03 06:22:49;;;;;;;5.18;1.80;;;;;;;18.96;48.26;102653.59;5061893;28;20452;-67
2022/10/03 06:25:17;;;;;;;;;;;;;;;18.99;48.74;102658.72;5061338;28;20060;-66
2022/10/03 06:28:10;;;;;;;5.40;1.83;;;;;;;18.83;48.86;102620.81;5061538;28;20734;-67
2022/10/03 06:30:53;;;;;;;4.15;1.50;;;;;;;19.09;48.95;102664.31;5061492;28;20060;-66
2022/10/03 06:33:37;;;;;;;5.15;1.60;;;;;;;19.12;48.53;102663.28;5061425;28;20434;-67
2022/10/03 06:36:17;;;;;;;3.20;1.30;;;;;;;19.14;48.57;102664.91;5061153;28;20139;-68
2022/10/03 06:39:27;;;;;;;6.07;1.77;;;;;;;19.16;48.79;102665.66;5060914;28;20269;-67
2022/10/03 06:42:14;;;;;;;4.47;1.45;;;;;;;19.19;48.91;102662.00;5061388;28;20473;-67
2022/10/03 06:44:45;;;;;;;5.32;1.80;;;;;;;19.18;48.82;102661.16;5061048;28;20021;-67
2022/10/03 06:47:36;;;;;;;4.80;1.65;;;;;;;19.23;49.01;102668.78;5061609;28;20050;-67
2022/10/03 06:50:29;;;;;;;3.58;1.40;;;;;;;19.24;49.14;102657.28;5061598;28;20040;-67
2022/10/03 06:53:20;;;;;;;3.08;1.40;;;;;;;19.25;48.85;102663.41;5061057;28;20020;-67
2022/10/03 06:55:54;;;;;;;5.88;1.75;;;;;;;19.26;49.24;102662.50;5068226;28;20123;-66
2022/10/03 06:58:50;;;;;;;5.55;1.90;;;;;;;19.27;49.08;102662.41;5060996;28;20060;-68
2022/10/03 07:01:44;;;;;;;4.78;1.70;;;;;;;19.29;48.88;102670.25;5063172;28;20047;-67
2022/10/03 07:04:29;;;;;;;5.25;1.75;;;;;;;19.24;48.82;102665.22;5065219;28;20040;-67
2022/10/03 07:07:04;;;;;;;4.18;1.60;;;;;;;19.29;48.89;102672.88;5065127;28;20036;-67
2022/10/03 07:09:52;;;;;;;3.47;1.50;;;;;;;19.29;48.91;102675.53;5063396;28;20032;-67
2022/10/03 07:12:46;;;;;;;5.30;2.00;;;;;;;19.17;49.37;102672.66;5064043;28;20542;-70
2022/10/03 07:15:39;;;;;;;4.97;1.80;;;;;;;19.24;49.27;102674.94;5064148;28;20115;-72
2022/10/03 07:18:37;;;;;;;9.88;2.17;;;;;;;19.28;49.12;102676.47;5063242;28;20464;-70
2022/10/03 07:21:42;;;;;;;8.77;1.83;;;;;;;19.34;49.19;102678.75;5064269;28;20024;-70
2022/10/03 07:24:25;;;;;;;7.03;1.80;;;;;;;19.38;49.16;102683.78;5062610;28;20051;-69
2022/10/03 07:27:09;;;;;;;5.75;1.80;;;;;;;19.44;48.79;102689.66;5063518;28;20032;-72
2022/10/03 07:29:52;;;;;;;5.97;1.98;;;;;;;19.43;48.65;102690.63;5063942;28;20066;-73
2022/10/03 07:32:59;;;;;;;3.63;1.50;;;;;;;19.47;48.42;102694.75;5063534;28;20046;-69
2022/10/03 07:39:12;;;;;;;5.50;2.50;;;;;;;19.55;48.28;102685.47;5063299;28;20085;-73
2022/10/03 07:41:41;;;;;;;5.45;1.77;;;;;;;19.53;48.30;102683.84;5063629;28;20032;-70
2022/10/03 07:44:28;;;;;;;4.85;1.98;;;;;;;19.57;48.25;102694.16;5063520;28;20043;-71
2022/10/03 07:46:53;;;;;;;5.82;2.15;;;;;;;19.57;48.56;102698.59;5063058;28;20517;-69
2022/10/03 07:49:56;;;;;;;4.83;1.90;;;;;;;19.53;48.54;102703.19;5063646;28;20140;-70
2022/10/03 07:52:43;;;;;;;3.75;1.63;;;;;;;19.51;48.55;102705.06;5063011;28;20264;-69
2022/10/03 07:55:26;;;;;;;4.82;1.83;;;;;;;19.45;48.85;102694.84;5062852;28;20040;-68
2022/10/03 07:58:25;;;;;;;4.47;2.03;;;;;;;19.50;48.69;102716.63;5064330;28;20028;-68
2022/10/03 08:01:08;;;;;;;5.20;1.58;;;;;;;19.51;49.17;102714.81;5061500;28;20049;-71
2022/10/03 08:04:12;;;;;;;4.03;1.92;;;;;;;19.56;49.11;102715.38;5063168;28;20036;-74
2022/10/03 08:06:42;;;;;;;4.63;1.70;;;;;;;19.55;48.92;102713.69;5015536;28;20037;-74
2022/10/03 08:09:35;;;;;;;3.75;1.58;;;;;;;19.64;49.12;102715.78;5063175;28;20047;-75
2022/10/03 08:12:13;;;;;;;3.67;1.52;;;;;;;19.70;48.98;102714.59;5062120;28;20033;-73
2022/10/03 08:14:41;;;;;;;6.15;1.88;;;;;;;19.73;49.10;102717.06;5062719;28;20474;-73
2022/10/03 08:17:37;;;;;;;5.22;1.77;;;;;;;19.75;48.80;102718.66;5062637;28;20374;-69
2022/10/03 08:20:11;;;;;;;5.35;1.95;;;;;;;19.77;48.79;102715.94;5062784;28;20037;-73
2022/10/03 08:22:58;;;;;;;5.45;2.28;;;;;;;19.80;49.12;102714.94;5062478;28;20082;-68
2022/10/03 08:25:49;;;;;;;6.78;1.80;;;;;;;19.79;48.91;102708.81;5062042;28;20048;-68
2022/10/03 08:28:45;;;;;;;4.82;1.80;;;;;;;19.78;49.26;102707.09;5060464;28;20348;-66
2022/10/03 08:31:28;;;;;;;5.20;1.60;;;;;;;19.75;49.28;102713.38;5063732;28;20033;-65
2022/10/03 08:33:59;;;;;;;5.60;1.80;;;;;;;19.79;49.26;102715.88;5052731;28;20036;-68
2022/10/03 08:36:36;;;;;;;7.70;1.73;;;;;;;19.79;49.54;102715.88;5062408;28;20670;-67
2022/10/03 08:39:12;;;;;;;6.93;1.77;;;;;;;19.76;49.87;102716.91;5059990;28;20102;-70
2022/10/03 08:41:54;;;;;;;6.10;1.85;;;;;;;19.77;49.77;102717.75;5062112;28;20029;-66
2022/10/03 08:44:55;;;;;;;5.25;1.60;;;;;;;19.72;49.62;102710.06;5062184;28;20115;-66
2022/10/03 08:47:42;;;;;;;4.75;1.75;;;;;;;19.78;49.61;102725.59;5062754;28;20020;-66
2022/10/03 08:50:48;;;;;;;6.05;1.60;;;;;;;19.77;49.46;102721.25;5061989;28;20052;-64
2022/10/03 08:53:30;;;;;;;6.95;1.50;;;;;;;19.71;49.62;102711.00;5052088;28;20548;-65
2022/10/03 08:56:06;;;;;;;4.28;1.60;;;;;;;19.72;49.80;102712.72;5063220;28;20124;-65
2022/10/03 08:59:12;;;;;;;5.53;1.60;;;;;;;19.74;49.57;102722.25;5077820;28;20036;-65
2022/10/03 09:01:59;;;;;;;6.85;1.77;;;;;;;19.78;49.80;102727.41;5063017;28;20032;-65
2022/10/03 09:04:45;;;;;;;5.50;1.77;;;;;;;19.78;50.08;102725.59;5062514;28;20387;-66
2022/10/03 09:07:19;;;;;;;4.45;1.60;;;;;;;19.75;49.77;102720.47;5063224;28;20039;-71
2022/10/03 09:10:08;;;;;;;4.68;1.50;;;;;;;19.68;50.20;102705.91;5063004;28;20077;-66
2022/10/03 09:12:52;;;;;;;6.20;1.60;;;;;;;19.75;50.32;102728.41;5060321;28;20074;-70
2022/10/03 09:15:42;;;;;;;4.38;1.60;;;;;;;19.76;50.14;102719.56;5062288;28;20024;-72
2022/10/03 09:18:13;;;;;;;4.05;1.50;;;;;;;19.77;50.58;102731.81;5061740;28;20939;-69
2022/10/03 09:20:57;;;;;;;5.90;1.58;;;;;;;19.78;50.53;102728.25;5062113;28;20039;-66
2022/10/03 09:23:41;;;;;;;3.78;1.48;;;;;;;19.78;50.60;102722.97;5060371;28;20052;-70
2022/10/03 09:26:25;;;;;;;8.48;2.00;;;;;;;19.81;50.54;102714.84;5062880;28;20068;-68
2022/10/03 09:29:08;;;;;;;4.43;1.40;;;;;;;19.88;50.82;102721.47;5060388;28;20499;-71
2022/10/03 09:31:53;;;;;;;4.65;2.30;;;;;;;19.90;50.48;102711.66;5061009;28;20042;-69
2022/10/03 09:34:48;;;;;;;5.22;1.70;;;;;;;19.92;50.50;102706.28;5060636;28;20163;-69
2022/10/03 09:37:23;;;;;;;5.25;1.45;;;;;;;19.88;50.72;102696.81;5061188;28;20521;-66
2022/10/03 09:40:25;;;;;;;4.10;1.55;;;;;;;19.84;50.79;102692.66;5061180;28;20035;-70
2022/10/03 09:43:04;;;;;;;4.28;1.23;;;;;;;19.70;50.82;102665.19;5053127;28;20067;-70
2022/10/03 09:45:35;;;;;;;6.38;1.30;;;;;;;19.88;50.76;102684.41;5059618;28;20086;-69
2022/10/03 09:48:35;;;;;;;3.78;1.30;;;;;;;19.94;50.65;102699.09;5061092;28;20760;-67
2022/10/03 09:51:15;;;;;;;3.78;1.10;;;;;;;19.96;50.64;102699.00;5060803;28;20093;-67
2022/10/03 09:54:09;;;;;;;4.93;1.58;;;;;;;19.93;50.60;102692.97;5060868;28;20032;-70
2022/10/03 09:56:52;;;;;;;4.20;1.50;;;;;;;20.00;50.78;102693.44;5060645;28;20032;-69
2022/10/03 09:59:33;;;;;;;5.85;1.52;;;;;;;19.90;50.59;102674.63;5060709;28;20384;-71
2022/10/03 10:02:40;;;;;;;5.07;1.38;;;;;;;20.08;50.57;102687.69;5061523;28;20025;-68
2022/10/03 10:05:24;;;;;;;3.78;1.15;;;;;;;20.11;50.42;102692.78;5026230;28;20040;-69
2022/10/03 10:07:58;;;;;;;4.03;1.35;;;;;;;20.13;50.48;102688.25;5061221;28;20074;-69
2022/10/03 10:10:41;;;;;;;;;;;;;;;20.12;50.45;102691.81;5061024;28;20131;-72
2022/10/03 10:13:34;;;;;;;4.80;1.20;;;;;;;20.16;50.60;102689.88;5060902;28;19912;-69
2022/10/03 10:16:24;;;;;;;4.38;1.27;;;;;;;20.19;50.45;102689.69;5060628;28;20119;-70
2022/10/03 10:19:26;;;;;;;5.03;1.30;;;;;;;20.20;50.53;102686.06;5060665;28;20055;-74
2022/10/03 10:22:04;;;;;;;2.95;1.20;;;;;;;20.20;50.65;102691.38;5060930;28;20036;-68
2022/10/03 10:24:29;;;;;;;6.38;1.48;;;;;;;20.10;50.63;102680.50;5060526;28;20049;-67
2022/10/03 10:27:18;;;;;;;3.80;1.13;;;;;;;20.18;50.48;102695.91;5060863;28;20524;-73
2022/10/03 10:30:14;;;;;;;4.10;1.30;;;;;;;20.19;50.48;102690.53;5060879;28;20299;-69
2022/10/03 10:33:09;;;;;;;5.05;1.30;;;;;;;20.21;50.41;102693.06;5060592;28;20020;-69
2022/10/03 10:36:07;;;;;;;7.63;1.48;;;;;;;20.17;50.66;102679.19;5059579;28;20487;-64
2022/10/03 10:38:42;;;;;;;3.30;1.00;;;;;;;20.17;50.53;102675.66;5059539;28;20104;-67
2022/10/03 10:41:29;;;;;;;3.58;0.98;;;;;;;20.20;50.57;102681.66;5060191;28;20040;-64
2022/10/03 10:44:13;;;;;;;3.80;1.15;;;;;;;20.19;50.77;102687.88;5060730;28;20028;-67
2022/10/03 10:47:01;;;;;;;2.60;1.00;;;;;;;20.14;51.20;102686.44;5060689;28;20094;-66
2022/10/03 10:49:42;;;;;;;4.85;1.42;;;;;;;20.17;50.86;102680.97;5058278;28;20086;-70
2022/10/03 10:52:40;;;;;;;4.25;1.20;;;;;;;20.19;50.92;102689.69;5060245;28;20064;-71
2022/10/03 10:55:42;;;;;;;6.05;1.25;;;;;;;20.21;50.73;102693.91;5060472;28;20074;-73
2022/10/03 10:58:31;;;;;;;5.22;1.42;;;;;;;20.23;50.71;102688.53;5060734;28;20125;-75
2022/10/03 11:01:38;;;;;;;4.15;1.27;;;;;;;20.21;50.68;102682.47;5060734;28;20047;-73
2022/10/03 11:04:54;;;;;;;4.43;1.00;;;;;;;20.28;50.64;102683.78;5060379;28;20521;-73
2022/10/03 11:07:48;;;;;;;2.75;0.90;;;;;;;20.29;50.88;102694.28;5059896;28;20033;-71
2022/10/03 11:10:35;;;;;;;25.50;1.45;;;;;;;20.24;50.65;102679.66;5060063;28;20036;-66
2022/10/03 11:13:31;;;;;;;3.67;1.20;;;;;;;20.29;50.96;102696.09;5059316;28;20169;-63
2022/10/03 11:16:34;;;;;;;4.90;1.20;;;;;;;20.26;50.65;102685.69;5059283;28;20660;-63
2022/10/03 11:19:02;;;;;;;5.00;1.15;;;;;;;20.18;50.83;102669.44;5048536;28;20032;-62
2022/10/03 11:21:52;;;;;;;3.33;1.20;;;;;;;20.22;50.83;102677.09;5059827;28;20480;-63
2022/10/03 11:24:36;;;;;;;5.13;1.13;;;;;;;20.22;51.05;102673.59;5060228;28;20063;-64
2022/10/03 11:27:17;;;;;;;3.90;1.08;;;;;;;20.21;50.77;102671.91;5060774;28;20075;-61
2022/10/03 11:30:00;;;;;;;4.18;0.98;;;;;;;20.20;50.78;102671.06;5060470;28;20492;-64
2022/10/03 11:33:04;;;;;;;4.50;0.80;;;;;;;20.19;50.54;102665.84;5060574;28;20111;-62
2022/10/03 11:35:57;;;;;;;6.18;1.42;;;;;;;20.17;50.57;102659.78;5060501;28;20033;-62
2022/10/03 11:38:33;;;;;;;6.68;1.20;;;;;;;20.16;50.64;102661.59;5060490;28;20028;-64
2022/10/03 11:41:07;;;;;;;4.30;1.30;;;;;;;20.14;50.57;102666.13;5060367;28;20034;-66
2022/10/03 11:44:03;;;;;;;5.25;1.20;;;;;;;20.15;50.45;102667.81;5060482;28;20158;-64
2022/10/03 11:46:32;;;;;;;2.95;1.10;;;;;;;20.13;50.29;102668.88;5061305;28;20040;-62
2022/10/03 11:49:09;;;;;;;4.75;1.10;;;;;;;20.06;50.41;102656.00;5063655;28;20036;-63
2022/10/03 11:52:01;;;;;;;2.58;0.80;;;;;;;20.08;50.45;102661.22;5064167;28;20123;-64
2022/10/03 11:54:35;;;;;;;5.25;1.48;;;;;;;20.07;50.49;102664.78;5063924;28;20480;-64
2022/10/03 11:57:08;;;;;;;3.80;1.15;;;;;;;20.09;50.26;102669.06;5063978;28;20078;-62
2022/10/03 11:59:37;;;;;;;4.43;1.17;;;;;;;19.97;50.59;102647.78;5059371;28;20940;-71
2022/10/03 12:02:09;;;;;;;3.88;0.90;;;;;;;19.96;50.65;102652.22;5063140;28;20036;-69
2022/10/03 12:04:50;;;;;;;4.88;1.13;;;;;;;20.01;50.70;102657.22;5063248;28;20036;-70
2022/10/03 12:10:50;;;;;;;3.67;1.08;;;;;;;19.97;50.19;102653.09;5062739;28;20039;-68
2022/10/03 12:14:06;;;;;;;4.85;1.15;;;;;;;20.01;50.39;102660.75;5062789;28;20047;-70
2022/10/03 12:16:58;;;;;;;4.20;1.13;;;;;;;20.03;50.61;102663.28;5058917;28;20392;-71
2022/10/03 12:19:45;;;;;;;3.58;1.10;;;;;;;20.05;50.53;102664.03;5060844;28;20044;-69
2022/10/03 12:22:35;;;;;;;5.82;1.20;;;;;;;20.07;50.58;102656.84;5062015;28;20060;-69
2022/10/03 12:25:22;;;;;;;4.93;1.13;;;;;;;20.00;50.73;102639.66;5062157;28;20066;-72
2022/10/03 12:27:57;;;;;;;2.83;0.88;;;;;;;20.08;50.37;102645.34;5061733;28;20040;-71
2022/10/03 12:30:24;;;;;;;3.17;0.90;;;;;;;20.14;50.36;102652.91;5062412;28;20032;-72
2022/10/03 12:33:03;;;;;;;4.35;0.75;;;;;;;20.14;50.23;102644.97;5062288;28;20035;-69
2022/10/03 12:36:09;;;;;;;2.58;0.82;;;;;;;20.19;50.18;102640.22;5062218;28;20239;-72
2022/10/03 12:39:02;;;;;;;2.90;0.85;;;;;;;20.20;50.00;102636.66;5050204;28;20124;-69
2022/10/03 12:41:40;;;;;;;3.22;1.00;;;;;;;20.30;50.02;102643.06;5062431;28;20035;-73
2022/10/03 12:44:19;;;;;;;4.07;1.30;;;;;;;20.34;49.89;102642.88;5062195;28;20034;-73
2022/10/03 12:47:03;;;;;;;3.67;0.98;;;;;;;20.35;49.89;102636.63;5062813;28;20582;-71
2022/10/03 12:49:48;;;;;;;4.80;1.15;;;;;;;20.35;49.82;102634.81;5062405;28;20033;-67
2022/10/03 12:52:22;;;;;;;8.25;2.38;;;;;;;20.25;50.15;102618.66;5062088;28;20043;-67
2022/10/03 12:54:50;;;;;;;3.28;0.80;;;;;;;20.32;50.33;102636.81;5062194;28;20027;-69
2022/10/03 12:57:30;;;;;;;4.45;1.13;;;;;;;20.32;50.36;102634.19;5061276;28;20036;-70
2022/10/03 13:00:12;;;;;;;3.78;1.02;;;;;;;20.33;50.32;102639.38;5060844;28;20039;-73
2022/10/03 13:02:46;;;;;;;4.13;1.17;;;;;;;20.36;50.42;102635.66;5062327;28;20121;-75
2022/10/03 13:05:31;;;;;;;5.93;1.13;;;;;;;20.37;50.19;102634.72;5061832;28;20035;-71
2022/10/03 13:08:28;;;;;;;3.33;0.95;;;;;;;20.38;50.34;102629.34;5062345;28;20496;-70